createdAt,value
2018-03-25T00:02:14.214Z,17.23
2018-03-25T00:04:44.470Z,17.27
2018-03-25T00:07:24.025Z,18.30
2018-03-25T00:09:54.911Z,17.75
2018-03-25T00:15:10.471Z,17.60
2018-03-25T00:17:48.852Z,16.77
2018-03-25T00:20:18.950Z,17.62
2018-03-25T00:22:48.920Z,16.00
2018-03-25T00:25:18.882Z,16.80
2018-03-25T00:27:49.087Z,17.70
2018-03-25T00:30:19.078Z,17.85
2018-03-25T00:32:48.999Z,18.08
2018-03-25T00:35:19.255Z,17.80
2018-03-25T00:37:50.205Z,18.87
2018-03-25T00:40:20.179Z,17.80
2018-03-25T00:42:50.421Z,18.02
2018-03-25T00:45:20.428Z,19.15
2018-03-25T00:47:50.406Z,19.25
2018-03-25T00:50:20.661Z,19.12
2018-03-25T00:52:50.664Z,18.27
2018-03-25T00:55:21.119Z,19.23
2018-03-25T00:57:51.373Z,18.98
2018-03-25T01:00:21.522Z,17.92
2018-03-25T01:02:51.478Z,19.73
2018-03-25T01:05:21.758Z,19.87
2018-03-25T01:07:51.722Z,20.27
2018-03-25T01:10:21.736Z,19.65
2018-03-25T01:12:51.978Z,19.15
2018-03-25T01:15:23.059Z,18.77
2018-03-25T01:17:53.052Z,20.80
2018-03-25T01:20:23.335Z,20.00
2018-03-25T01:22:53.366Z,19.20
2018-03-25T01:25:23.362Z,19.45
2018-03-25T01:27:53.600Z,20.20
2018-03-25T01:30:33.235Z,19.45
2018-03-25T01:33:04.587Z,20.42
2018-03-25T01:35:45.525Z,19.90
2018-03-25T01:38:15.474Z,21.08
2018-03-25T01:40:56.115Z,21.85
2018-03-25T01:43:26.431Z,22.25
2018-03-25T01:48:32.582Z,21.35
2018-03-25T01:51:02.601Z,21.98
2018-03-25T01:53:32.614Z,23.62
2018-03-25T01:56:02.934Z,24.52
2018-03-25T01:58:32.934Z,21.77
2018-03-25T02:01:02.882Z,24.10
2018-03-25T02:03:33.196Z,23.50
2018-03-25T02:06:03.864Z,23.00
2018-03-25T02:08:33.858Z,22.07
2018-03-25T02:11:04.119Z,21.55
2018-03-25T02:13:34.136Z,22.70
2018-03-25T02:16:04.114Z,22.05
2018-03-25T02:18:34.417Z,22.52
2018-03-25T02:21:04.362Z,22.08
2018-03-25T02:23:34.360Z,22.37
2018-03-25T02:26:05.607Z,22.10
2018-03-25T02:28:35.643Z,23.23
2018-03-25T02:31:05.555Z,24.70
2018-03-25T02:33:35.862Z,27.65
2018-03-25T02:36:05.815Z,32.92
2018-03-25T02:38:35.839Z,30.40
2018-03-25T02:41:06.321Z,26.42
2018-03-25T02:43:36.850Z,27.17
2018-03-25T02:46:06.820Z,26.85
2018-03-25T02:48:37.139Z,26.77
2018-03-25T02:51:07.462Z,25.42
2018-03-25T02:53:38.031Z,22.90
2018-03-25T02:56:08.279Z,23.20
2018-03-25T02:58:38.236Z,23.48
2018-03-25T03:01:08.144Z,25.23
2018-03-25T03:03:38.436Z,23.65
2018-03-25T03:06:08.368Z,23.75
2018-03-25T03:08:38.322Z,23.90
2018-03-25T03:11:08.820Z,23.50
2018-03-25T03:13:38.822Z,22.52
2018-03-25T03:16:08.768Z,21.77
2018-03-25T03:18:39.051Z,23.45
2018-03-25T03:21:08.953Z,22.15
2018-03-25T03:23:38.913Z,21.40
2018-03-25T03:26:09.220Z,23.20
2018-03-25T03:28:39.199Z,23.00
2018-03-25T03:31:09.107Z,22.55
2018-03-25T03:33:39.360Z,22.53
2018-03-25T03:36:09.316Z,22.53
2018-03-25T03:38:39.305Z,23.90
2018-03-25T03:41:09.592Z,21.92
2018-03-25T03:43:39.547Z,21.00
2018-03-25T03:46:09.465Z,21.75
2018-03-25T03:48:40.718Z,23.52
2018-03-25T03:51:10.664Z,26.23
2018-03-25T03:53:40.617Z,25.02
2018-03-25T03:56:10.881Z,24.63
2018-03-25T03:58:40.869Z,24.90
2018-03-25T04:01:10.858Z,26.98
2018-03-25T04:03:41.154Z,26.95
2018-03-25T04:06:11.121Z,25.12
2018-03-25T04:08:41.113Z,26.52
2018-03-25T04:11:11.026Z,31.80
2018-03-25T04:13:41.017Z,26.77
2018-03-25T04:16:11.239Z,25.10
2018-03-25T04:18:41.240Z,25.25
2018-03-25T04:21:11.212Z,26.95
2018-03-25T04:23:41.526Z,25.13
2018-03-25T04:26:11.470Z,24.08
2018-03-25T04:28:41.435Z,24.65
2018-03-25T04:31:12.823Z,23.12
2018-03-25T04:33:42.834Z,22.02
2018-03-25T04:36:12.813Z,21.52
2018-03-25T04:38:44.094Z,22.65
2018-03-25T04:41:14.039Z,22.50
2018-03-25T04:43:44.093Z,21.98
2018-03-25T04:46:14.812Z,21.83
2018-03-25T04:48:44.757Z,21.62
2018-03-25T04:51:14.703Z,21.73
2018-03-25T04:53:45.002Z,23.10
2018-03-25T04:56:14.942Z,23.58
2018-03-25T04:58:44.850Z,22.95
2018-03-25T05:01:15.178Z,21.95
2018-03-25T05:03:45.117Z,22.27
2018-03-25T05:06:15.089Z,26.90
2018-03-25T05:08:45.370Z,24.83
2018-03-25T05:11:15.346Z,22.20
2018-03-25T05:13:45.254Z,22.87
2018-03-25T05:16:15.549Z,22.60
2018-03-25T05:18:45.506Z,21.80
2018-03-25T05:21:15.529Z,23.00
2018-03-25T05:23:46.906Z,22.35
2018-03-25T05:26:16.867Z,25.52
2018-03-25T05:28:46.782Z,27.65
2018-03-25T05:31:17.089Z,26.27
2018-03-25T05:33:47.045Z,25.27
2018-03-25T05:36:17.128Z,24.98
2018-03-25T05:38:47.420Z,24.17
2018-03-25T05:41:17.436Z,25.88
2018-03-25T05:43:47.421Z,25.20
2018-03-25T05:46:17.693Z,25.40
2018-03-25T05:48:47.627Z,25.13
2018-03-25T05:51:17.655Z,25.83
2018-03-25T05:53:47.883Z,28.58
2018-03-25T05:56:18.655Z,25.33
2018-03-25T05:58:48.572Z,26.65
2018-03-25T06:03:59.504Z,26.17
2018-03-25T06:06:29.807Z,26.67
2018-03-25T06:08:59.755Z,28.27
2018-03-25T06:11:29.730Z,27.85
2018-03-25T06:13:59.953Z,30.20
2018-03-25T06:16:29.937Z,29.30
2018-03-25T06:18:59.850Z,28.57
2018-03-25T06:21:30.120Z,27.30
2018-03-25T06:24:00.144Z,26.77
2018-03-25T06:26:30.133Z,26.50
2018-03-25T06:29:00.361Z,25.90
2018-03-25T06:31:30.354Z,25.83
2018-03-25T06:34:00.303Z,25.15
2018-03-25T06:36:30.562Z,24.08
2018-03-25T06:39:00.477Z,23.70
2018-03-25T06:41:30.486Z,23.23
2018-03-25T06:44:00.748Z,23.85
2018-03-25T06:46:30.759Z,23.40
2018-03-25T06:49:00.681Z,23.20
2018-03-25T06:51:30.963Z,24.98
2018-03-25T06:54:01.025Z,24.10
2018-03-25T06:56:31.000Z,23.05
2018-03-25T06:59:01.250Z,23.98
2018-03-25T07:01:31.198Z,24.07
2018-03-25T07:04:01.174Z,23.45
2018-03-25T07:06:31.390Z,22.87
2018-03-25T07:09:01.372Z,23.33
2018-03-25T07:11:31.338Z,23.45
2018-03-25T07:16:40.365Z,22.40
2018-03-25T07:19:10.382Z,22.87
2018-03-25T07:21:40.306Z,22.35
2018-03-25T07:24:10.270Z,21.58
2018-03-25T07:26:40.555Z,21.65
2018-03-25T07:29:10.510Z,22.15
2018-03-25T07:31:40.459Z,22.10
2018-03-25T07:34:10.706Z,22.55
2018-03-25T07:36:41.103Z,22.15
2018-03-25T07:39:11.094Z,21.92
2018-03-25T07:41:41.039Z,24.50
2018-03-25T07:44:11.006Z,26.58
2018-03-25T07:46:41.259Z,23.60
2018-03-25T07:49:11.262Z,23.53
2018-03-25T07:51:41.323Z,28.48
2018-03-25T07:54:11.595Z,33.35
2018-03-25T07:56:41.527Z,33.58
2018-03-25T07:59:11.553Z,25.33
2018-03-25T08:01:41.863Z,25.08
2018-03-25T08:04:11.863Z,22.87
2018-03-25T08:06:41.847Z,22.67
2018-03-25T08:09:11.832Z,23.62
2018-03-25T08:11:41.738Z,25.53
2018-03-25T08:14:11.988Z,24.05
2018-03-25T08:16:41.979Z,23.67
2018-03-25T08:19:11.941Z,24.58
2018-03-25T08:21:42.233Z,23.23
2018-03-25T08:24:12.209Z,23.40
2018-03-25T08:26:42.179Z,23.15
2018-03-25T08:29:12.468Z,22.10
2018-03-25T08:31:42.488Z,21.40
2018-03-25T08:34:12.458Z,22.67
2018-03-25T08:36:42.674Z,21.05
2018-03-25T08:39:13.006Z,21.48
2018-03-25T08:41:42.970Z,21.60
2018-03-25T08:44:13.192Z,21.15
2018-03-25T08:46:43.171Z,21.67
2018-03-25T08:49:13.259Z,22.33
2018-03-25T08:51:43.770Z,21.37
2018-03-25T08:54:13.740Z,20.33
2018-03-25T08:56:43.857Z,21.08
2018-03-25T08:59:14.209Z,21.73
2018-03-25T09:01:44.267Z,20.98
2018-03-25T09:04:14.255Z,20.77
2018-03-25T09:06:44.511Z,20.35
2018-03-25T09:09:14.545Z,19.95
2018-03-25T09:11:44.529Z,20.12
2018-03-25T09:14:14.870Z,22.23
2018-03-25T09:16:44.828Z,22.08
2018-03-25T09:19:14.787Z,20.77
2018-03-25T09:21:45.098Z,20.80
2018-03-25T11:14:22.831Z,19.05
2018-03-25T11:16:52.778Z,17.10
2018-03-25T11:19:23.601Z,18.83
2018-03-25T11:21:54.836Z,16.25
2018-03-25T11:24:24.924Z,19.80
2018-03-25T11:26:55.204Z,19.25
2018-03-25T11:29:25.136Z,20.87
2018-03-25T11:31:55.206Z,20.70
2018-03-25T11:34:27.600Z,20.15
2018-03-25T11:36:57.613Z,20.85
2018-03-25T11:40:30.262Z,20.30
2018-03-25T11:43:00.486Z,20.40
2018-03-25T11:45:31.383Z,20.30
2018-03-25T11:48:01.346Z,19.95
2018-03-25T11:50:31.604Z,20.45
2018-03-25T11:53:01.906Z,20.23
2018-03-25T11:55:32.026Z,20.33
2018-03-25T11:58:03.024Z,21.75
2018-03-25T12:00:33.320Z,20.40
2018-03-25T12:03:03.339Z,20.10
2018-03-25T12:05:33.324Z,21.53
2018-03-25T12:08:03.598Z,21.65
2018-03-25T12:10:33.610Z,21.13
2018-03-25T12:13:03.563Z,21.33
2018-03-25T12:15:34.073Z,20.37
2018-03-25T12:18:04.082Z,20.62
2018-03-25T12:20:34.548Z,21.50
2018-03-25T12:23:04.861Z,21.15
2018-03-25T12:25:34.862Z,20.00
2018-03-25T12:28:04.843Z,19.17
2018-03-25T12:30:35.799Z,19.08
2018-03-25T12:33:06.433Z,20.23
2018-03-25T12:35:36.476Z,19.85
2018-03-25T12:38:06.826Z,20.33
2018-03-25T12:40:36.866Z,20.02
2018-03-25T12:43:08.276Z,20.48
2018-03-25T12:45:39.262Z,20.17
2018-03-25T12:51:11.207Z,21.05
2018-03-25T12:53:41.182Z,20.85
2018-03-25T12:56:11.570Z,21.65
2018-03-25T12:58:41.569Z,21.17
2018-03-25T13:01:12.372Z,19.67
2018-03-25T13:03:42.648Z,20.15
2018-03-25T13:06:12.665Z,19.75
2018-03-25T13:08:42.695Z,20.33
2018-03-25T13:11:13.928Z,18.67
2018-03-25T13:13:44.023Z,17.55
2018-03-25T13:16:14.064Z,18.67
2018-03-25T13:18:45.667Z,17.92
2018-03-25T13:21:15.694Z,18.60
2018-03-25T13:23:45.736Z,18.27
2018-03-25T13:26:16.069Z,19.10
2018-03-25T13:28:46.973Z,19.58
2018-03-25T13:31:17.009Z,16.60
2018-03-25T13:33:47.333Z,18.12
2018-03-25T13:36:17.361Z,18.60
2018-03-25T13:38:47.375Z,15.27
2018-03-25T13:41:17.705Z,18.55
2018-03-25T13:43:48.048Z,18.00
2018-03-25T13:46:18.056Z,18.87
2018-03-25T13:48:48.417Z,17.98
2018-03-25T13:51:19.365Z,19.02
2018-03-25T13:53:49.416Z,19.25
2018-03-25T13:56:19.818Z,18.35
2018-03-25T13:58:50.694Z,18.83
2018-03-25T14:03:49.980Z,19.23
2018-03-25T14:06:20.052Z,17.75
2018-03-25T14:08:50.381Z,18.45
2018-03-25T14:11:20.407Z,18.08
2018-03-25T14:13:50.967Z,19.50
2018-03-25T14:16:21.281Z,19.20
2018-03-25T14:21:20.381Z,18.42
2018-03-25T14:23:50.720Z,19.55
2018-03-25T14:36:18.358Z,19.35
2018-03-25T14:38:48.577Z,18.48
2018-03-25T14:41:18.583Z,19.25
2018-03-25T14:43:48.555Z,18.45
2018-03-25T14:46:18.902Z,18.77
2018-03-25T14:48:48.969Z,18.42
2018-03-25T14:51:19.016Z,19.15
2018-03-25T14:53:49.299Z,18.45
2018-03-25T14:56:19.347Z,19.70
2018-03-25T14:58:49.388Z,19.77
2018-03-25T15:01:22.129Z,19.90
2018-03-25T16:23:31.356Z,19.85
2018-03-25T17:08:19.429Z,18.93
2018-03-25T17:10:50.039Z,19.85
2018-03-25T17:13:21.360Z,19.67
2018-03-25T17:15:51.373Z,20.08
2018-03-25T17:18:21.458Z,20.23
2018-03-25T17:20:51.773Z,18.60
2018-03-25T17:23:22.523Z,19.95
2018-03-25T17:28:21.948Z,19.95
2018-03-25T17:30:52.783Z,20.58
2018-03-25T17:33:22.828Z,20.42
2018-03-25T17:35:53.119Z,20.45
2018-03-25T17:38:23.145Z,20.00
2018-03-25T17:48:22.788Z,22.77
